createdAt,value
2023-03-22T06:49:43.281Z,99.90
2023-03-22T06:52:45.493Z,99.90
2023-03-22T06:55:47.232Z,99.90
2023-03-22T06:58:52.036Z,99.90
2023-03-22T07:01:54.397Z,99.90
2023-03-22T07:04:57.032Z,99.90
2023-03-22T07:07:59.089Z,99.90
2023-03-22T07:11:01.619Z,99.90
2023-03-22T07:14:04.212Z,99.90
2023-03-22T07:17:06.957Z,99.90
2023-03-22T07:20:10.111Z,99.90
2023-03-22T07:23:13.140Z,99.90
2023-03-22T07:26:15.920Z,99.90
2023-03-22T07:29:18.426Z,99.90
2023-03-22T07:32:20.744Z,99.90
2023-03-22T07:35:24.562Z,99.90
2023-03-22T07:38:30.905Z,99.90
2023-03-22T07:41:33.355Z,99.90
2023-03-22T07:44:38.292Z,99.90
2023-03-22T07:47:41.618Z,99.90
2023-03-22T07:50:44.719Z,99.90
2023-03-22T07:53:46.702Z,99.90
2023-03-22T07:56:48.919Z,99.90
2023-03-22T07:59:50.924Z,99.90
2023-03-22T08:02:53.418Z,99.90
2023-03-22T08:05:58.858Z,99.90
2023-03-22T08:09:00.808Z,99.90
2023-03-22T08:12:02.877Z,99.90
2023-03-22T08:15:05.459Z,99.90
2023-03-22T08:18:09.333Z,99.90
2023-03-22T08:21:12.333Z,99.90
2023-03-22T08:24:17.299Z,99.90
2023-03-22T08:27:21.202Z,99.50
2023-03-22T08:30:23.485Z,96.70
2023-03-22T08:33:25.470Z,95.30
2023-03-22T08:36:31.342Z,93.40
2023-03-22T08:39:33.678Z,93.30
2023-03-22T08:42:36.493Z,93.60
2023-03-22T08:45:41.491Z,93.00
2023-03-22T08:48:50.607Z,91.90
2023-03-22T08:51:55.195Z,91.30
2023-03-22T08:54:57.913Z,90.70
2023-03-22T08:58:05.017Z,92.00
2023-03-22T09:01:12.462Z,94.30
2023-03-22T09:04:15.998Z,95.50
2023-03-22T09:07:20.814Z,96.00
2023-03-22T09:10:24.154Z,95.40
2023-03-22T09:13:28.055Z,94.70
2023-03-22T09:16:31.084Z,91.60
2023-03-22T09:19:35.265Z,94.30
2023-03-22T09:22:39.562Z,92.00
2023-03-22T09:25:47.358Z,95.50
2023-03-22T09:28:50.700Z,97.60
2023-03-22T09:31:55.673Z,93.10
2023-03-22T09:34:58.767Z,92.90
2023-03-22T09:38:06.793Z,95.40
2023-03-22T09:41:29.663Z,96.90
2023-03-22T09:44:44.214Z,93.20
2023-03-22T09:47:56.564Z,91.10
2023-03-22T09:51:03.007Z,93.30
2023-03-22T09:54:25.823Z,94.70
2023-03-22T09:57:38.840Z,94.70
2023-03-22T10:00:54.511Z,92.40
2023-03-22T10:04:41.029Z,93.00
2023-03-22T10:08:21.069Z,92.50
2023-03-22T10:11:45.989Z,91.60
2023-03-22T10:15:00.825Z,90.20
2023-03-22T10:18:07.955Z,91.60
2023-03-22T10:21:12.840Z,92.30
2023-03-22T10:24:20.637Z,91.90
2023-03-22T10:27:26.346Z,91.50
2023-03-22T10:30:34.430Z,90.50
2023-03-22T10:33:50.614Z,92.40
2023-03-22T10:36:53.366Z,91.30
2023-03-22T10:39:58.855Z,89.70
2023-03-22T10:43:31.959Z,86.90
2023-03-22T10:46:38.208Z,87.40
2023-03-22T10:49:45.532Z,86.40
2023-03-22T10:52:58.168Z,85.60
2023-03-22T10:56:00.739Z,89.00
2023-03-22T10:59:02.908Z,87.40
2023-03-22T11:02:05.186Z,86.70
2023-03-22T11:05:07.777Z,86.10
2023-03-22T11:08:14.485Z,84.90
2023-03-22T11:11:23.407Z,85.70
2023-03-22T11:14:37.767Z,85.80
2023-03-22T11:17:39.972Z,89.40
2023-03-22T11:20:52.327Z,90.70
2023-03-22T11:24:02.761Z,86.70
2023-03-22T11:27:22.026Z,86.70
2023-03-22T11:30:28.781Z,85.60
2023-03-22T11:33:31.056Z,86.90
2023-03-22T11:36:43.922Z,84.80
2023-03-22T11:39:49.771Z,85.00
2023-03-22T11:42:57.295Z,81.50
2023-03-22T11:46:01.019Z,81.20
2023-03-22T11:49:07.358Z,85.20
2023-03-22T11:52:15.633Z,88.50
2023-03-22T11:55:18.407Z,86.80
2023-03-22T11:58:27.146Z,86.70
2023-03-22T12:01:46.988Z,86.70
2023-03-22T12:04:53.167Z,87.50
2023-03-22T12:08:20.825Z,85.80
2023-03-22T12:11:37.710Z,87.40
2023-03-22T12:14:48.333Z,87.50
2023-03-22T12:18:12.206Z,91.00
2023-03-22T12:21:13.922Z,90.50
2023-03-22T12:24:24.757Z,89.80
2023-03-22T12:27:34.953Z,87.50
2023-03-22T12:30:44.706Z,88.30
2023-03-22T12:33:53.828Z,90.00
2023-03-22T12:36:57.263Z,90.20
2023-03-22T12:40:11.605Z,90.20
2023-03-22T12:43:22.293Z,91.60
2023-03-22T12:46:36.211Z,91.00
2023-03-22T12:50:12.891Z,91.00
2023-03-22T12:53:17.436Z,91.00
2023-03-22T12:56:25.069Z,90.80
2023-03-22T12:59:30.681Z,91.30
2023-03-22T13:02:35.315Z,91.60
2023-03-22T13:05:37.981Z,91.10
2023-03-22T13:09:16.983Z,92.30
2023-03-22T13:12:28.229Z,92.60
2023-03-22T13:15:42.467Z,92.70
2023-03-22T13:18:45.236Z,92.30
2023-03-22T13:21:49.916Z,92.20
2023-03-22T13:25:16.885Z,91.80
2023-03-22T13:28:26.392Z,92.20
2023-03-22T13:31:58.873Z,92.60
2023-03-22T13:35:01.520Z,92.40
2023-03-22T13:38:08.909Z,92.00
2023-03-22T13:41:35.817Z,91.90
2023-03-22T13:44:42.885Z,91.60
2023-03-22T13:47:46.714Z,90.80
2023-03-22T13:50:49.044Z,92.20
2023-03-22T13:54:07.375Z,93.10
2023-03-22T13:58:08.090Z,92.90
2023-03-22T14:01:36.209Z,92.30
2023-03-22T14:04:47.654Z,92.60
2023-03-22T14:07:56.224Z,92.20
2023-03-22T14:11:31.229Z,93.00
2023-03-22T14:14:41.122Z,92.80
2023-03-22T14:17:59.044Z,93.70
2023-03-22T14:21:05.846Z,94.20
